RPA4669 KDCA-KCMH
Flight info
| Callsign | RPA4669 |
|---|---|
| Flight time | 0h 55m |
| Altitude | 30000 |
| Route | WYNGS5 RAMAY Q72 HACKS SCRLT2 |
| Aircraft | E75L/M-SDE3GILORVW/S |
Departure
| Time | 2026-05-09 00:46 |
|---|---|
| Airport | Ronald Reagan Washington National Airport (KDCA) |
Arrival
| Time | 2026-05-09 01:42 |
|---|---|
| Airport | John Glenn Columbus International Airport (KCMH) |
| Time | Latitude | Longitude | Altitude | Speed | Heading |
|---|---|---|---|---|---|
| 2026-05-09 00:05 | 38.85670 | -77.04263 | 21 ft | 0 kts | 168° |
| 2026-05-09 00:29 | 38.85671 | -77.04263 | 21 ft | 1 kts | 168° |
| 2026-05-09 00:29 | 38.85685 | -77.04267 | 21 ft | 2 kts | 168° |
| 2026-05-09 00:29 | 38.85695 | -77.04270 | 21 ft | 2 kts | 169° |
| 2026-05-09 00:30 | 38.85707 | -77.04279 | 21 ft | 2 kts | 120° |
| 2026-05-09 00:30 | 38.85710 | -77.04298 | 21 ft | 1 kts | 79° |
| 2026-05-09 00:30 | 38.85709 | -77.04305 | 21 ft | 1 kts | 67° |
| 2026-05-09 00:30 | 38.85708 | -77.04309 | 21 ft | 0 kts | 71° |
| 2026-05-09 00:35 | 38.85710 | -77.04297 | 21 ft | 2 kts | 71° |
| 2026-05-09 00:35 | 38.85722 | -77.04254 | 21 ft | 5 kts | 72° |
| 2026-05-09 00:35 | 38.85728 | -77.04231 | 21 ft | 2 kts | 72° |
| 2026-05-09 00:35 | 38.85732 | -77.04213 | 21 ft | 0 kts | 72° |
| 2026-05-09 00:37 | 38.85745 | -77.04157 | 21 ft | 7 kts | 75° |
| 2026-05-09 00:37 | 38.85747 | -77.04147 | 21 ft | 3 kts | 82° |
| 2026-05-09 00:37 | 38.85702 | -77.04070 | 21 ft | 14 kts | 127° |
| 2026-05-09 00:37 | 38.85717 | -77.03986 | 21 ft | 12 kts | 41° |
| 2026-05-09 00:38 | 38.85855 | -77.03989 | 21 ft | 22 kts | 357° |
| 2026-05-09 00:38 | 38.85996 | -77.03964 | 21 ft | 9 kts | 17° |
| 2026-05-09 00:38 | 38.86012 | -77.03959 | 21 ft | 0 kts | 13° |
| 2026-05-09 00:45 | 38.86033 | -77.03951 | 21 ft | 13 kts | 17° |
| 2026-05-09 00:45 | 38.86096 | -77.03879 | 21 ft | 9 kts | 113° |
| 2026-05-09 00:45 | 38.86057 | -77.03867 | 21 ft | 13 kts | 177° |
| 2026-05-09 00:46 | 38.85722 | -77.03837 | 21 ft | 88 kts | 175° |
| 2026-05-09 00:46 | 38.84893 | -77.03751 | 22 ft | 147 kts | 176° |
| 2026-05-09 00:46 | 38.83796 | -77.03649 | 326 ft | 167 kts | 177° |
| 2026-05-09 00:46 | 38.82638 | -77.03565 | 1004 ft | 177 kts | 179° |
| 2026-05-09 00:47 | 38.81408 | -77.03532 | 1818 ft | 184 kts | 181° |
| 2026-05-09 00:47 | 38.80192 | -77.03518 | 2876 ft | 184 kts | 181° |
| 2026-05-09 00:47 | 38.78810 | -77.03497 | 2984 ft | 213 kts | 181° |
| 2026-05-09 00:47 | 38.77275 | -77.03466 | 3033 ft | 225 kts | 180° |
| 2026-05-09 00:48 | 38.75650 | -77.03439 | 3578 ft | 244 kts | 185° |
| 2026-05-09 00:48 | 38.74161 | -77.04192 | 4827 ft | 234 kts | 219° |
| 2026-05-09 00:48 | 38.73223 | -77.05949 | 4926 ft | 247 kts | 252° |
| 2026-05-09 00:48 | 38.73344 | -77.08099 | 5025 ft | 246 kts | 289° |
| 2026-05-09 00:49 | 38.73938 | -77.10146 | 4996 ft | 245 kts | 278° |
| 2026-05-09 00:49 | 38.74151 | -77.12351 | 5364 ft | 255 kts | 269° |
| 2026-05-09 00:49 | 38.74162 | -77.14520 | 6403 ft | 246 kts | 266° |
| 2026-05-09 00:49 | 38.74125 | -77.16708 | 7280 ft | 245 kts | 264° |
| 2026-05-09 00:50 | 38.74038 | -77.18848 | 8083 ft | 247 kts | 263° |
| 2026-05-09 00:50 | 38.73926 | -77.21040 | 8956 ft | 248 kts | 263° |
| 2026-05-09 00:50 | 38.73797 | -77.23336 | 9334 ft | 270 kts | 264° |
| 2026-05-09 00:50 | 38.74209 | -77.25730 | 10029 ft | 286 kts | 293° |
| 2026-05-09 00:51 | 38.75156 | -77.27895 | 11119 ft | 281 kts | 295° |
| 2026-05-09 00:51 | 38.76156 | -77.30077 | 11819 ft | 291 kts | 296° |
| 2026-05-09 00:51 | 38.77234 | -77.32363 | 12350 ft | 306 kts | 297° |
| 2026-05-09 00:51 | 38.78346 | -77.34694 | 13191 ft | 310 kts | 297° |
| 2026-05-09 00:52 | 38.79468 | -77.37038 | 14074 ft | 313 kts | 297° |
| 2026-05-09 00:52 | 38.80601 | -77.39402 | 14903 ft | 317 kts | 296° |
| 2026-05-09 00:52 | 38.81764 | -77.41831 | 15706 ft | 322 kts | 296° |
| 2026-05-09 00:52 | 38.82935 | -77.44276 | 16480 ft | 325 kts | 296° |
| 2026-05-09 00:53 | 38.84119 | -77.46751 | 17247 ft | 329 kts | 296° |
| 2026-05-09 00:53 | 38.85312 | -77.49246 | 17972 ft | 332 kts | 296° |
| 2026-05-09 00:53 | 38.86518 | -77.51770 | 18638 ft | 336 kts | 295° |
| 2026-05-09 00:53 | 38.87732 | -77.54313 | 19284 ft | 340 kts | 295° |
| 2026-05-09 00:54 | 38.88971 | -77.56910 | 19926 ft | 343 kts | 295° |
| 2026-05-09 00:54 | 38.90209 | -77.59508 | 20531 ft | 347 kts | 295° |
| 2026-05-09 00:54 | 38.91480 | -77.62179 | 21089 ft | 352 kts | 295° |
| 2026-05-09 00:54 | 38.92770 | -77.64890 | 21630 ft | 356 kts | 295° |
| 2026-05-09 00:55 | 38.93880 | -77.67664 | 22126 ft | 350 kts | 280° |
| 2026-05-09 00:55 | 38.94249 | -77.70713 | 22674 ft | 344 kts | 269° |
| 2026-05-09 00:55 | 38.94424 | -77.73737 | 23332 ft | 342 kts | 267° |
| 2026-05-09 00:55 | 38.94556 | -77.76791 | 23798 ft | 346 kts | 266° |
| 2026-05-09 00:56 | 38.94674 | -77.79903 | 24266 ft | 349 kts | 266° |
| 2026-05-09 00:56 | 38.94787 | -77.83034 | 24756 ft | 352 kts | 266° |
| 2026-05-09 00:56 | 38.94896 | -77.86159 | 25225 ft | 354 kts | 266° |
| 2026-05-09 00:56 | 38.95007 | -77.89345 | 25669 ft | 357 kts | 266° |
| 2026-05-09 00:57 | 38.95115 | -77.92497 | 26120 ft | 359 kts | 265° |
| 2026-05-09 00:57 | 38.95224 | -77.95710 | 26520 ft | 361 kts | 265° |
| 2026-05-09 00:57 | 38.95333 | -77.98934 | 26936 ft | 363 kts | 265° |
| 2026-05-09 00:57 | 38.95441 | -78.02193 | 27316 ft | 366 kts | 265° |
| 2026-05-09 00:58 | 38.95550 | -78.05473 | 27706 ft | 368 kts | 265° |
| 2026-05-09 00:58 | 38.95657 | -78.08720 | 28065 ft | 370 kts | 265° |
| 2026-05-09 00:58 | 38.95764 | -78.12040 | 28392 ft | 373 kts | 265° |
| 2026-05-09 00:58 | 38.95873 | -78.15386 | 28767 ft | 374 kts | 265° |
| 2026-05-09 00:59 | 38.95979 | -78.18719 | 29063 ft | 377 kts | 264° |
| 2026-05-09 00:59 | 38.96106 | -78.22067 | 29366 ft | 381 kts | 266° |
| 2026-05-09 00:59 | 38.96327 | -78.25504 | 29669 ft | 384 kts | 266° |
| 2026-05-09 00:59 | 38.96399 | -78.26626 | 29765 ft | 385 kts | 266° |
| 2026-05-09 01:00 | 38.96764 | -78.32250 | 29912 ft | 377 kts | 266° |
| 2026-05-09 01:00 | 38.96980 | -78.35612 | 29949 ft | 380 kts | 266° |
| 2026-05-09 01:00 | 38.97417 | -78.42432 | 29953 ft | 385 kts | 266° |
| 2026-05-09 01:01 | 38.97853 | -78.49299 | 29950 ft | 385 kts | 266° |
| 2026-05-09 01:01 | 38.98283 | -78.56147 | 29953 ft | 385 kts | 266° |
| 2026-05-09 01:02 | 38.98711 | -78.63010 | 29956 ft | 385 kts | 266° |
| 2026-05-09 01:02 | 38.99133 | -78.69855 | 29972 ft | 385 kts | 266° |
| 2026-05-09 01:03 | 38.99551 | -78.76697 | 29973 ft | 385 kts | 266° |
| 2026-05-09 01:03 | 38.99965 | -78.83533 | 29972 ft | 385 kts | 265° |
| 2026-05-09 01:04 | 39.00377 | -78.90403 | 29972 ft | 385 kts | 265° |
| 2026-05-09 01:04 | 39.00784 | -78.97274 | 29973 ft | 385 kts | 266° |
| 2026-05-09 01:05 | 39.01186 | -79.04132 | 29970 ft | 384 kts | 265° |
| 2026-05-09 01:06 | 39.01777 | -79.14313 | 29976 ft | 383 kts | 266° |
| 2026-05-09 01:06 | 39.02204 | -79.21154 | 29996 ft | 380 kts | 268° |
| 2026-05-09 01:07 | 39.02650 | -79.27916 | 29996 ft | 381 kts | 266° |
| 2026-05-09 01:07 | 39.03091 | -79.34734 | 29954 ft | 383 kts | 266° |
| 2026-05-09 01:08 | 39.03532 | -79.41551 | 29956 ft | 384 kts | 266° |
| 2026-05-09 01:08 | 39.03967 | -79.48380 | 29935 ft | 387 kts | 267° |
| 2026-05-09 01:09 | 39.04398 | -79.55192 | 29936 ft | 381 kts | 266° |
| 2026-05-09 01:09 | 39.04821 | -79.61971 | 29936 ft | 383 kts | 267° |
| 2026-05-09 01:10 | 39.05249 | -79.68793 | 29986 ft | 383 kts | 265° |
| 2026-05-09 01:10 | 39.05660 | -79.75505 | 29974 ft | 382 kts | 266° |
| 2026-05-09 01:11 | 39.06075 | -79.82325 | 29988 ft | 382 kts | 265° |
| 2026-05-09 01:11 | 39.06494 | -79.89240 | 29992 ft | 387 kts | 265° |
| 2026-05-09 01:12 | 39.06903 | -79.96056 | 29978 ft | 382 kts | 266° |
| 2026-05-09 01:12 | 39.07303 | -80.02840 | 29990 ft | 381 kts | 267° |
| 2026-05-09 01:13 | 39.07699 | -80.09609 | 29957 ft | 380 kts | 265° |
| 2026-05-09 01:13 | 39.08091 | -80.16345 | 29953 ft | 378 kts | 265° |
| 2026-05-09 01:14 | 39.08478 | -80.23100 | 29959 ft | 380 kts | 266° |
| 2026-05-09 01:14 | 39.08866 | -80.29929 | 29936 ft | 385 kts | 265° |
| 2026-05-09 01:15 | 39.09241 | -80.36751 | 29942 ft | 380 kts | 265° |
| 2026-05-09 01:15 | 39.09605 | -80.43540 | 29946 ft | 384 kts | 266° |
| 2026-05-09 01:16 | 39.09968 | -80.50377 | 29954 ft | 386 kts | 266° |
| 2026-05-09 01:16 | 39.10325 | -80.57125 | 29928 ft | 379 kts | 265° |
| 2026-05-09 01:17 | 39.10679 | -80.63950 | 29641 ft | 382 kts | 266° |
| 2026-05-09 01:17 | 39.10856 | -80.67336 | 29380 ft | 378 kts | 265° |
| 2026-05-09 01:17 | 39.11028 | -80.70693 | 29048 ft | 378 kts | 266° |
| 2026-05-09 01:17 | 39.11200 | -80.74041 | 28753 ft | 372 kts | 266° |
| 2026-05-09 01:18 | 39.11369 | -80.77378 | 28447 ft | 375 kts | 265° |
| 2026-05-09 01:18 | 39.11536 | -80.80702 | 28148 ft | 375 kts | 265° |
| 2026-05-09 01:18 | 39.11705 | -80.84041 | 27843 ft | 373 kts | 266° |
| 2026-05-09 01:18 | 39.11871 | -80.87364 | 27537 ft | 370 kts | 265° |
| 2026-05-09 01:19 | 39.12033 | -80.90642 | 27252 ft | 371 kts | 267° |
| 2026-05-09 01:19 | 39.12196 | -80.93943 | 26942 ft | 367 kts | 267° |
| 2026-05-09 01:19 | 39.12358 | -80.97241 | 26637 ft | 369 kts | 267° |
| 2026-05-09 01:19 | 39.12517 | -81.00507 | 26329 ft | 365 kts | 268° |
| 2026-05-09 01:20 | 39.12676 | -81.03794 | 26007 ft | 368 kts | 268° |
| 2026-05-09 01:20 | 39.12835 | -81.07066 | 25718 ft | 365 kts | 269° |
| 2026-05-09 01:20 | 39.13322 | -81.10259 | 25353 ft | 372 kts | 284° |
| 2026-05-09 01:20 | 39.14212 | -81.13386 | 25115 ft | 372 kts | 286° |
| 2026-05-09 01:21 | 39.15131 | -81.16482 | 24796 ft | 371 kts | 287° |
| 2026-05-09 01:21 | 39.16062 | -81.19576 | 24489 ft | 371 kts | 287° |
| 2026-05-09 01:21 | 39.16996 | -81.22667 | 24185 ft | 368 kts | 287° |
| 2026-05-09 01:21 | 39.17917 | -81.25715 | 23928 ft | 365 kts | 287° |
| 2026-05-09 01:22 | 39.18825 | -81.28724 | 23954 ft | 363 kts | 287° |
| 2026-05-09 01:22 | 39.19747 | -81.31782 | 23946 ft | 365 kts | 287° |
| 2026-05-09 01:22 | 39.20666 | -81.34833 | 23937 ft | 366 kts | 287° |
| 2026-05-09 01:22 | 39.21591 | -81.37909 | 23934 ft | 368 kts | 287° |
| 2026-05-09 01:23 | 39.22513 | -81.40974 | 23932 ft | 367 kts | 287° |
| 2026-05-09 01:23 | 39.23428 | -81.44020 | 23934 ft | 367 kts | 287° |
| 2026-05-09 01:23 | 39.24351 | -81.47102 | 23652 ft | 374 kts | 287° |
| 2026-05-09 01:23 | 39.25287 | -81.50228 | 22888 ft | 375 kts | 287° |
| 2026-05-09 01:24 | 39.26218 | -81.53337 | 22277 ft | 370 kts | 287° |
| 2026-05-09 01:24 | 39.27130 | -81.56384 | 21820 ft | 361 kts | 287° |
| 2026-05-09 01:24 | 39.28025 | -81.59383 | 21351 ft | 354 kts | 287° |
| 2026-05-09 01:24 | 39.28894 | -81.62296 | 20950 ft | 347 kts | 287° |
| 2026-05-09 01:25 | 39.29752 | -81.65175 | 20525 ft | 344 kts | 286° |
| 2026-05-09 01:25 | 39.30610 | -81.68064 | 20117 ft | 343 kts | 286° |
| 2026-05-09 01:25 | 39.31456 | -81.70908 | 19720 ft | 343 kts | 286° |
| 2026-05-09 01:25 | 39.32308 | -81.73780 | 19311 ft | 343 kts | 286° |
| 2026-05-09 01:26 | 39.33158 | -81.76643 | 18914 ft | 341 kts | 286° |
| 2026-05-09 01:26 | 39.33998 | -81.79481 | 18509 ft | 339 kts | 286° |
| 2026-05-09 01:26 | 39.34836 | -81.82311 | 18098 ft | 337 kts | 286° |
| 2026-05-09 01:26 | 39.35675 | -81.85150 | 17684 ft | 335 kts | 286° |
| 2026-05-09 01:27 | 39.36490 | -81.87907 | 17311 ft | 332 kts | 286° |
| 2026-05-09 01:27 | 39.37318 | -81.90712 | 17029 ft | 330 kts | 286° |
| 2026-05-09 01:27 | 39.38128 | -81.93464 | 16749 ft | 329 kts | 286° |
| 2026-05-09 01:27 | 39.38948 | -81.96248 | 16465 ft | 329 kts | 286° |
| 2026-05-09 01:28 | 39.39755 | -81.98993 | 16185 ft | 328 kts | 286° |
| 2026-05-09 01:28 | 39.40556 | -82.01717 | 15881 ft | 327 kts | 286° |
| 2026-05-09 01:28 | 39.41370 | -82.04491 | 15570 ft | 326 kts | 286° |
| 2026-05-09 01:28 | 39.42163 | -82.07194 | 15265 ft | 324 kts | 286° |
| 2026-05-09 01:29 | 39.42958 | -82.09907 | 14942 ft | 323 kts | 286° |
| 2026-05-09 01:29 | 39.43757 | -82.12640 | 14577 ft | 322 kts | 286° |
| 2026-05-09 01:29 | 39.44547 | -82.15343 | 14218 ft | 321 kts | 286° |
| 2026-05-09 01:29 | 39.45322 | -82.17996 | 13864 ft | 319 kts | 287° |
| 2026-05-09 01:30 | 39.46108 | -82.20689 | 13501 ft | 317 kts | 287° |
| 2026-05-09 01:30 | 39.46883 | -82.23354 | 13141 ft | 315 kts | 286° |
| 2026-05-09 01:30 | 39.47652 | -82.25993 | 12783 ft | 314 kts | 286° |
| 2026-05-09 01:30 | 39.48415 | -82.28619 | 12425 ft | 312 kts | 286° |
| 2026-05-09 01:31 | 39.49178 | -82.31246 | 12065 ft | 311 kts | 286° |
| 2026-05-09 01:31 | 39.49969 | -82.33821 | 11667 ft | 313 kts | 293° |
| 2026-05-09 01:31 | 39.51409 | -82.35966 | 11196 ft | 321 kts | 317° |
| 2026-05-09 01:31 | 39.53164 | -82.37725 | 10812 ft | 319 kts | 319° |
| 2026-05-09 01:32 | 39.54930 | -82.39433 | 10374 ft | 316 kts | 320° |
| 2026-05-09 01:32 | 39.56672 | -82.41093 | 10017 ft | 309 kts | 320° |
| 2026-05-09 01:32 | 39.58387 | -82.42719 | 10024 ft | 302 kts | 320° |
| 2026-05-09 01:32 | 39.60069 | -82.44313 | 10018 ft | 304 kts | 320° |
| 2026-05-09 01:33 | 39.61774 | -82.45928 | 10025 ft | 305 kts | 320° |
| 2026-05-09 01:33 | 39.63499 | -82.47561 | 10028 ft | 306 kts | 320° |
| 2026-05-09 01:33 | 39.65204 | -82.49176 | 10015 ft | 306 kts | 320° |
| 2026-05-09 01:33 | 39.66923 | -82.50806 | 10017 ft | 305 kts | 320° |
| 2026-05-09 01:34 | 39.68631 | -82.52427 | 10016 ft | 305 kts | 320° |
| 2026-05-09 01:34 | 39.70353 | -82.54060 | 9990 ft | 306 kts | 320° |
| 2026-05-09 01:34 | 39.72094 | -82.55660 | 9811 ft | 307 kts | 322° |
| 2026-05-09 01:34 | 39.73843 | -82.57199 | 9360 ft | 308 kts | 323° |
| 2026-05-09 01:35 | 39.75617 | -82.58759 | 8792 ft | 307 kts | 323° |
| 2026-05-09 01:35 | 39.77370 | -82.60300 | 8242 ft | 304 kts | 323° |
| 2026-05-09 01:35 | 39.79095 | -82.61816 | 7686 ft | 300 kts | 324° |
| 2026-05-09 01:35 | 39.80850 | -82.63238 | 7067 ft | 296 kts | 335° |
| 2026-05-09 01:36 | 39.82818 | -82.63782 | 6530 ft | 291 kts | 351° |
| 2026-05-09 01:36 | 39.84802 | -82.64064 | 5973 ft | 286 kts | 353° |
| 2026-05-09 01:36 | 39.86760 | -82.64302 | 5399 ft | 281 kts | 353° |
| 2026-05-09 01:36 | 39.88677 | -82.64516 | 4986 ft | 267 kts | 354° |
| 2026-05-09 01:37 | 39.90425 | -82.64706 | 4887 ft | 244 kts | 354° |
| 2026-05-09 01:37 | 39.92093 | -82.64956 | 4404 ft | 238 kts | 343° |
| 2026-05-09 01:37 | 39.93588 | -82.65736 | 4105 ft | 224 kts | 337° |
| 2026-05-09 01:37 | 39.94987 | -82.66417 | 3812 ft | 214 kts | 339° |
| 2026-05-09 01:38 | 39.96322 | -82.67205 | 3395 ft | 208 kts | 318° |
| 2026-05-09 01:38 | 39.97166 | -82.68653 | 3085 ft | 198 kts | 303° |
| 2026-05-09 01:38 | 39.97896 | -82.70099 | 2971 ft | 180 kts | 295° |
| 2026-05-09 01:38 | 39.98144 | -82.71596 | 3023 ft | 156 kts | 276° |
| 2026-05-09 01:39 | 39.98258 | -82.72909 | 3003 ft | 141 kts | 276° |
| 2026-05-09 01:39 | 39.98355 | -82.74151 | 2984 ft | 134 kts | 275° |
| 2026-05-09 01:39 | 39.98442 | -82.75378 | 3000 ft | 136 kts | 275° |
| 2026-05-09 01:39 | 39.98528 | -82.76656 | 2616 ft | 151 kts | 274° |
| 2026-05-09 01:40 | 39.98618 | -82.78064 | 2110 ft | 157 kts | 274° |
| 2026-05-09 01:40 | 39.98703 | -82.79342 | 1956 ft | 131 kts | 274° |
| 2026-05-09 01:40 | 39.98769 | -82.80490 | 1658 ft | 120 kts | 272° |
| 2026-05-09 01:40 | 39.98829 | -82.81563 | 1463 ft | 117 kts | 274° |
| 2026-05-09 01:41 | 39.98896 | -82.82670 | 1357 ft | 128 kts | 274° |
| 2026-05-09 01:41 | 39.98962 | -82.83862 | 1305 ft | 134 kts | 274° |
| 2026-05-09 01:41 | 39.99033 | -82.85030 | 1182 ft | 127 kts | 275° |
| 2026-05-09 01:41 | 39.99099 | -82.86186 | 1031 ft | 128 kts | 274° |
| 2026-05-09 01:42 | 39.99163 | -82.87357 | 853 ft | 129 kts | 274° |
| 2026-05-09 01:42 | 39.99225 | -82.88405 | 821 ft | 95 kts | 274° |
| 2026-05-09 01:42 | 39.99261 | -82.89033 | 821 ft | 46 kts | 273° |
| 2026-05-09 01:42 | 39.99290 | -82.89415 | 821 ft | 40 kts | 285° |
| 2026-05-09 01:43 | 39.99392 | -82.89666 | 820 ft | 19 kts | 309° |
| 2026-05-09 01:43 | 39.99452 | -82.89683 | 820 ft | 5 kts | 33° |
| 2026-05-09 01:43 | 39.99468 | -82.89640 | 820 ft | 5 kts | 87° |
| 2026-05-09 01:43 | 39.99467 | -82.89585 | 820 ft | 6 kts | 94° |
| 2026-05-09 01:44 | 39.99462 | -82.89490 | 820 ft | 12 kts | 94° |
| 2026-05-09 01:44 | 39.99456 | -82.89377 | 820 ft | 13 kts | 93° |
| 2026-05-09 01:44 | 39.99447 | -82.89208 | 820 ft | 24 kts | 95° |
| 2026-05-09 01:44 | 39.99430 | -82.88938 | 820 ft | 33 kts | 92° |
| 2026-05-09 01:45 | 39.99412 | -82.88638 | 820 ft | 33 kts | 95° |
| 2026-05-09 01:45 | 39.99403 | -82.88353 | 820 ft | 24 kts | 68° |
| 2026-05-09 01:45 | 39.99510 | -82.88322 | 820 ft | 16 kts | 6° |
| 2026-05-09 01:45 | 39.99603 | -82.88308 | 820 ft | 5 kts | 21° |
| 2026-05-09 01:46 | 39.99617 | -82.88269 | 820 ft | 5 kts | 90° |
| 2026-05-09 01:46 | 39.99614 | -82.88219 | 820 ft | 5 kts | 94° |
| 2026-05-09 01:46 | 39.99629 | -82.88173 | 820 ft | 6 kts | 25° |
| 2026-05-09 01:46 | 39.99673 | -82.88165 | 820 ft | 6 kts | 5° |
| 2026-05-09 01:47 | 39.99719 | -82.88158 | 820 ft | 4 kts | 7° |
| 2026-05-09 01:47 | 39.99744 | -82.88155 | 820 ft | 2 kts | 6° |
| 2026-05-09 01:47 | 39.99748 | -82.88155 | 820 ft | 0 kts | 6° |